Time;durP1;ratioP1;P1;durP2;ratioP2;P2;SDS_P1;SDS_P2;PMS_P1;PMS_P2;Temp;Humidity;BMP_temperature;BMP_pressure;BME280_temperature;BME280_humidity;BME280_pressure;Samples;Min_cycle;Max_cycle;Signal;HPM_P1;HPM_P2
2022/09/12 00:02:16;;;;;;;7.20;5.63;;;16.80;99.90;;;18.05;82.85;100750.59;5029956;28;21180;-66
2022/09/12 00:04:43;;;;;;;8.30;5.90;;;16.70;99.90;;;18.18;82.25;100756.31;5028362;28;20710;-65
2022/09/12 00:07:09;;;;;;;9.73;6.20;;;16.70;99.90;;;18.19;82.48;100751.81;5029927;28;20675;-68
2022/09/12 00:09:36;;;;;;;8.80;6.03;;;16.70;99.90;;;18.33;82.45;100749.47;5028988;28;20661;-65
2022/09/12 00:12:04;;;;;;;7.37;5.40;;;16.80;99.90;;;18.36;81.35;100751.78;5029991;28;21019;-66
2022/09/12 00:14:31;;;;;;;6.67;5.17;;;16.90;99.90;;;18.29;81.28;100750.72;5028911;28;20636;-65
2022/09/12 00:16:58;;;;;;;7.30;5.37;;;16.80;99.90;;;18.09;82.17;100744.03;5028863;28;20612;-65
2022/09/12 00:19:26;;;;;;;11.00;6.30;;;16.70;99.90;;;18.03;82.56;100744.66;5016128;28;20680;-65
2022/09/12 00:21:54;;;;;;;6.77;5.27;;;16.70;99.90;;;17.99;82.54;100729.28;5010630;28;20668;-66
2022/09/12 00:24:22;;;;;;;7.60;5.50;;;16.60;99.90;;;18.01;82.78;100729.94;5009064;28;20634;-65
2022/09/12 00:26:49;;;;;;;8.37;5.93;;;16.60;99.90;;;18.02;82.42;100740.34;5009032;28;20618;-65
2022/09/12 00:29:21;;;;;;;7.80;5.67;;;16.50;99.90;;;18.11;82.05;100735.94;5018845;28;21267;-65
2022/09/12 00:31:48;;;;;;;6.23;5.20;;;16.50;99.90;;;18.11;82.09;100739.41;5025639;28;20628;-64
2022/09/12 00:34:15;;;;;;;8.53;6.10;;;16.60;99.90;;;18.07;82.40;100738.06;5031957;28;20636;-65
2022/09/12 00:36:42;;;;;;;10.20;6.60;;;16.60;99.90;;;18.14;81.75;100739.13;5027633;28;20637;-65
2022/09/12 00:39:15;;;;;;;10.43;6.30;;;16.60;99.90;;;18.19;82.09;100734.19;5029339;28;20668;-66
2022/09/12 00:41:43;;;;;;;8.83;5.87;;;16.60;99.90;;;18.17;82.14;100736.16;5029048;28;20680;-65
2022/09/12 00:44:22;;;;;;;10.43;6.30;;;16.70;99.90;;;18.21;82.47;100726.09;5013358;28;20606;-66
2022/09/12 00:47:14;;;;;;;10.60;6.70;;;16.60;99.90;;;18.23;82.51;100738.16;5016332;28;20645;-68
2022/09/12 00:49:54;;;;;;;11.00;7.30;;;16.70;99.90;;;18.23;82.83;100734.72;5034318;28;20636;-66
2022/09/12 00:52:35;;;;;;;8.00;5.90;;;16.70;99.90;;;18.31;83.39;100737.38;5032949;28;20623;-66
2022/09/12 00:55:14;;;;;;;7.07;5.60;;;16.70;99.90;;;18.32;82.46;100739.03;5033587;28;20625;-65
2022/09/12 00:58:00;;;;;;;8.37;5.00;;;16.80;99.90;;;18.09;82.72;100728.19;5034623;28;20702;-66
2022/09/12 01:00:27;;;;;;;8.43;5.50;;;16.70;99.90;;;18.04;82.56;100724.38;5034466;28;21442;-65
2022/09/12 01:03:02;;;;;;;7.70;5.77;;;16.60;99.90;;;17.89;83.96;100724.09;5017448;28;20621;-66
2022/09/12 01:05:33;;;;;;;9.83;5.57;;;16.50;99.90;;;17.88;83.54;100719.81;5025483;28;20702;-66
2022/09/12 01:08:03;;;;;;;6.50;4.20;;;16.50;99.90;;;17.83;83.47;100720.25;5033035;28;20609;-66
2022/09/12 01:10:33;;;;;;;7.20;5.77;;;16.40;99.90;;;17.83;83.79;100712.34;5018913;28;20712;-65
2022/09/12 01:13:04;;;;;;;6.40;4.90;;;16.40;99.90;;;17.79;84.73;100723.34;5011340;28;20981;-65
2022/09/12 01:15:31;;;;;;;6.60;4.93;;;16.40;99.90;;;17.89;83.72;100720.63;5013334;28;20659;-65
2022/09/12 01:18:47;;;;;;;6.10;4.67;;;16.40;99.90;;;17.74;83.80;100717.69;5011292;28;20720;-67
2022/09/12 01:21:27;;;;;;;6.90;5.30;;;16.30;99.90;;;17.33;86.37;100715.69;5013069;28;20618;-66
2022/09/12 01:24:25;;;;;;;5.83;4.63;;;16.20;99.90;;;17.72;84.26;100717.88;5012701;28;20641;-65
2022/09/12 01:27:46;;;;;;;7.37;4.90;;;16.20;99.90;;;17.64;83.87;100714.34;5012872;28;20656;-67
2022/09/12 01:30:47;;;;;;;5.43;4.57;;;16.20;99.90;;;17.72;83.27;100717.03;5011100;28;20694;-66
2022/09/12 01:33:50;;;;;;;6.77;4.90;;;16.20;99.90;;;17.71;83.68;100716.22;5012364;28;20695;-69
2022/09/12 01:36:51;;;;;;;6.70;4.73;;;16.20;99.90;;;17.75;83.28;100706.19;5031399;28;20690;-66
2022/09/12 01:39:26;;;;;;;7.47;4.53;;;16.30;99.90;;;17.82;82.08;100705.38;5029148;28;20672;-66
2022/09/12 01:42:18;;;;;;;5.10;4.60;;;16.30;99.90;;;17.85;82.01;100709.53;5030065;28;20698;-67
2022/09/12 01:45:31;;;;;;;9.43;4.90;;;16.40;99.90;;;17.86;81.34;100707.75;5031114;28;20616;-66
2022/09/12 01:48:03;;;;;;;6.17;4.70;;;16.40;99.90;;;17.83;81.58;100700.94;5014705;28;21262;-68
2022/09/12 01:50:39;;;;;;;7.50;4.70;;;16.50;99.90;;;17.92;80.63;100701.84;5025638;28;20660;-66
2022/09/12 01:53:22;;;;;;;8.40;5.33;;;16.50;99.90;;;18.04;79.90;100700.59;5031016;28;20670;-66
2022/09/12 01:56:09;;;;;;;7.27;4.77;;;16.50;99.90;;;17.91;80.11;100698.34;5012756;28;20675;-66
2022/09/12 01:58:49;;;;;;;7.33;5.80;;;16.60;99.90;;;17.92;80.30;100694.75;5011070;28;20661;-67
2022/09/12 02:01:30;;;;;;;7.93;4.93;;;16.50;99.90;;;17.88;80.13;100696.03;5010655;28;20698;-66
2022/09/12 02:04:15;;;;;;;6.80;5.30;;;16.50;99.90;;;17.89;79.89;100684.47;5010849;28;20641;-65
2022/09/12 02:07:02;;;;;;;5.53;4.90;;;16.50;99.90;;;17.92;79.51;100692.09;5024215;28;20613;-67
2022/09/12 02:09:45;;;;;;;6.07;5.30;;;16.50;99.90;;;17.81;79.83;100695.00;5030098;28;22953;-66
2022/09/12 02:12:18;;;;;;;8.67;6.10;;;16.50;99.90;;;17.83;79.89;100698.31;5031467;28;21041;-67
2022/09/12 02:14:52;;;;;;;7.63;5.50;;;16.50;99.90;;;17.92;79.30;100694.75;5011243;28;20634;-66
2022/09/12 02:17:22;;;;;;;6.73;5.00;;;16.50;99.90;;;17.92;79.43;100694.75;5010328;28;21246;-65
2022/09/12 02:20:02;;;;;;;5.17;4.67;;;16.50;99.90;;;17.85;78.72;100688.41;5010568;28;20662;-65
2022/09/12 02:22:32;;;;;;;7.00;4.87;;;16.50;99.90;;;17.86;78.27;100684.81;5011284;28;20605;-65
2022/09/12 02:25:01;;;;;;;10.20;6.03;;;16.40;99.90;;;17.85;78.89;100683.16;5010513;28;21274;-65
2022/09/12 02:27:44;;;;;;;10.03;5.97;;;16.40;99.90;;;17.73;79.70;100679.13;5012174;28;20676;-65
2022/09/12 02:30:15;;;;;;;6.93;5.57;;;16.30;99.90;;;17.65;80.03;100679.88;5020842;28;20718;-65
2022/09/12 02:33:06;;;;;;;10.87;6.57;;;16.30;99.90;;;17.66;80.26;100683.34;5030594;28;20617;-65
2022/09/12 02:35:46;;;;;;;7.50;5.43;;;16.30;99.90;;;17.72;80.18;100672.16;5029086;28;20641;-67
2022/09/12 02:38:37;;;;;;;8.03;5.90;;;16.30;99.90;;;17.73;80.12;100674.69;5030358;28;21297;-66
2022/09/12 02:41:04;;;;;;;8.83;4.90;;;16.20;99.90;;;17.64;80.53;100680.88;5015400;28;20634;-65
2022/09/12 02:43:31;;;;;;;10.90;5.83;;;16.30;99.90;;;17.65;80.73;100682.50;5011630;28;21033;-69
2022/09/12 02:45:58;;;;;;;8.73;5.67;;;16.20;99.90;;;17.75;80.72;100679.78;5009747;28;20680;-65
2022/09/12 02:48:30;;;;;;;8.73;5.70;;;16.30;99.90;;;17.68;81.44;100676.09;5011751;28;20636;-65
2022/09/12 02:50:57;;;;;;;7.30;5.17;;;16.30;99.90;;;17.66;81.93;100676.28;5016883;28;20636;-68
2022/09/12 02:53:25;;;;;;;7.73;5.13;;;16.20;99.90;;;17.64;82.01;100683.50;5022273;28;20622;-65
2022/09/12 02:55:52;;;;;;;5.47;4.50;;;16.20;99.90;;;17.68;81.32;100674.31;5017220;28;20937;-65
2022/09/12 02:58:26;;;;;;;5.20;4.27;;;16.20;99.90;;;17.63;81.02;100673.13;5029794;28;21260;-66
2022/09/12 03:01:42;;;;;;;7.50;5.00;;;16.20;99.90;;;17.61;80.57;100680.38;5021422;28;21248;-65
2022/09/12 03:04:48;;;;;;;6.97;4.57;;;16.10;99.90;;;17.61;80.27;100669.81;5009949;28;20676;-66
2022/09/12 03:08:11;;;;;;;7.50;5.27;;;16.10;99.90;;;17.52;80.41;100671.56;5027368;28;20633;-66
2022/09/12 03:11:07;;;;;;;5.70;3.87;;;16.00;99.90;;;17.43;80.19;100668.97;5006461;28;21113;-65
2022/09/12 03:14:01;;;;;;;7.03;4.40;;;15.90;99.90;;;17.31;81.07;100671.03;5020396;28;20995;-65
2022/09/12 03:17:17;;;;;;;6.60;4.40;;;15.80;99.90;;;17.23;80.92;100670.13;5028998;28;20617;-68
2022/09/12 03:20:33;;;;;;;6.77;5.00;;;15.80;99.90;;;17.31;80.57;100662.28;5015872;28;20669;-65
2022/09/12 03:23:18;;;;;;;6.80;5.00;;;15.70;99.90;;;17.34;80.69;100675.16;5019718;28;21177;-65
2022/09/12 03:26:00;;;;;;;7.60;4.63;;;15.70;99.90;;;17.31;81.14;100667.56;5010455;28;20622;-65
2022/09/12 03:28:28;;;;;;;7.63;5.13;;;15.70;99.90;;;17.24;82.15;100666.50;5012478;28;20644;-65
2022/09/12 03:30:55;;;;;;;6.00;4.80;;;15.70;99.90;;;17.24;83.08;100669.13;5030463;28;20655;-65
2022/09/12 03:33:24;;;;;;;4.57;3.63;;;15.70;99.90;;;17.22;82.77;100665.81;5030603;28;20659;-67
2022/09/12 03:35:53;;;;;;;4.87;4.10;;;15.70;99.90;;;17.23;81.91;100673.56;5031786;28;20624;-65
2022/09/12 03:38:20;;;;;;;9.50;5.43;;;15.70;99.90;;;17.23;81.83;100654.31;5031707;28;21208;-67
2022/09/12 03:40:47;;;;;;;6.20;4.50;;;15.70;99.90;;;17.22;81.73;100658.75;5031804;28;20640;-65
2022/09/12 03:43:20;;;;;;;9.90;5.20;;;15.70;99.90;;;17.21;82.06;100658.88;5029891;28;20664;-66
2022/09/12 03:45:53;;;;;;;10.03;4.57;;;15.70;99.90;;;17.17;82.45;100662.81;5026586;28;20691;-65
2022/09/12 03:48:20;;;;;;;6.40;4.27;;;15.60;99.90;;;17.12;81.66;100662.44;5029645;28;20625;-65
2022/09/12 03:50:47;;;;;;;7.73;4.40;;;15.60;99.90;;;17.06;82.07;100662.06;5024660;28;20665;-66
2022/09/12 03:53:14;;;;;;;6.50;4.80;;;15.60;99.90;;;17.11;82.31;100671.31;5030160;28;20625;-65
2022/09/12 03:55:43;;;;;;;8.97;4.87;;;15.60;99.90;;;16.98;82.89;100669.91;5027236;28;20640;-66
2022/09/12 03:58:10;;;;;;;6.67;3.97;;;15.60;99.90;;;16.97;83.86;100665.59;5030134;28;20617;-66
2022/09/12 04:00:38;;;;;;;15.33;5.37;;;15.60;99.90;;;17.00;83.71;100675.84;5027173;28;20661;-66
2022/09/12 04:03:04;;;;;;;12.53;5.47;;;15.60;99.90;;;17.19;82.57;100663.47;5030083;28;21224;-65
2022/09/12 04:05:31;;;;;;;9.17;5.57;;;15.70;99.90;;;17.21;83.28;100664.16;5020891;28;20637;-65
2022/09/12 04:07:58;;;;;;;8.33;5.27;;;15.70;99.90;;;17.09;83.45;100668.84;5036399;28;21022;-65
2022/09/12 04:10:25;;;;;;;8.77;4.97;;;15.70;99.90;;;17.21;82.40;100664.16;5035509;28;20652;-67
2022/09/12 04:12:52;;;;;;;9.37;5.47;;;15.80;99.90;;;17.28;81.50;100666.03;5035411;28;20622;-65
2022/09/12 04:15:19;;;;;;;8.67;5.80;;;15.80;99.90;;;17.29;81.65;100665.06;5021490;28;21386;-65
2022/09/12 04:17:46;;;;;;;12.90;6.67;;;15.80;99.90;;;17.32;81.29;100675.31;5016292;28;20664;-66
2022/09/12 04:20:13;;;;;;;9.63;6.47;;;15.90;99.90;;;17.29;80.92;100669.53;5024599;28;21025;-66
2022/09/12 04:22:39;;;;;;;8.40;5.37;;;15.90;99.90;;;17.14;81.60;100671.03;5036464;28;20683;-66
2022/09/12 04:25:08;;;;;;;7.13;5.07;;;15.80;99.90;;;17.16;81.35;100669.91;5030712;28;21050;-66
2022/09/12 04:27:35;;;;;;;8.47;5.20;;;15.70;99.90;;;17.16;82.17;100672.53;5036577;28;20616;-65
2022/09/12 04:30:03;;;;;;;9.70;5.33;;;15.70;99.90;;;17.14;82.75;100671.03;5035155;28;21269;-66
2022/09/12 04:32:30;;;;;;;11.80;6.57;;;15.70;99.90;;;17.23;82.19;100667.50;5036457;28;20613;-65
2022/09/12 04:34:57;;;;;;;9.60;5.60;;;15.70;99.90;;;16.98;83.58;100671.69;5034352;28;21269;-65
2022/09/12 04:37:24;;;;;;;12.43;6.23;;;15.70;99.90;;;16.99;83.44;100668.09;5036926;28;20621;-66
2022/09/12 04:39:56;;;;;;;10.33;6.30;;;15.60;99.90;;;17.01;83.74;100671.41;5027876;28;20673;-66
2022/09/12 04:42:23;;;;;;;8.87;5.87;;;15.60;99.90;;;16.98;83.54;100671.69;5016300;28;20620;-65
2022/09/12 04:44:50;;;;;;;4.47;4.03;;;15.50;99.90;;;16.98;84.08;100667.25;5022621;28;20644;-66
2022/09/12 04:47:17;;;;;;;11.97;5.97;;;15.50;99.90;;;16.95;83.99;100664.91;5037136;28;20647;-66
2022/09/12 04:49:44;;;;;;;7.20;5.30;;;15.50;99.90;;;16.99;83.98;100674.19;5031595;28;20697;-65
2022/09/12 04:52:11;;;;;;;9.47;5.27;;;15.60;99.90;;;16.94;84.06;100671.19;5036123;28;20608;-66
2022/09/12 04:54:38;;;;;;;9.03;5.90;;;15.50;99.90;;;16.94;83.79;100667.72;5035175;28;21190;-67
2022/09/12 04:57:05;;;;;;;12.10;6.50;;;15.50;99.90;;;16.79;84.14;100667.41;5037191;28;20613;-67
2022/09/12 04:59:32;;;;;;;6.00;4.97;;;15.40;99.90;;;16.85;84.43;100664.16;5034707;28;21234;-67
2022/09/12 05:01:59;;;;;;;10.60;6.40;;;15.40;99.90;;;16.68;85.66;100669.41;5030145;28;20629;-66
2022/09/12 05:04:26;;;;;;;9.13;5.90;;;15.40;99.90;;;16.78;85.38;100664.94;5033168;28;20605;-66
2022/09/12 05:06:52;;;;;;;9.70;6.17;;;15.40;99.90;;;16.86;85.33;100657.94;5027144;28;20686;-65
2022/09/12 05:09:19;;;;;;;12.00;8.57;;;15.40;99.90;;;16.79;85.67;100654.22;5050148;28;21219;-66
2022/09/12 05:11:46;;;;;;;14.73;9.17;;;15.40;99.90;;;16.76;85.06;100667.69;5034534;28;20644;-67
2022/09/12 05:14:31;;;;;;;15.83;9.13;;;15.50;99.90;;;16.90;84.90;100667.19;5035321;28;20643;-67
2022/09/12 05:17:00;;;;;;;16.20;9.00;;;15.50;99.90;;;16.80;84.90;100668.25;5033634;28;21436;-65
2022/09/12 05:19:29;;;;;;;14.37;7.80;;;15.50;99.90;;;16.90;84.60;100669.00;5045291;23;20723;-66
2022/09/12 05:21:56;;;;;;;14.67;6.63;;;15.50;99.90;;;16.98;84.29;100662.00;5032522;28;20630;-65
2022/09/12 05:24:23;;;;;;;13.00;7.03;;;15.50;99.90;;;17.00;84.05;100660.03;5015779;28;20637;-65
2022/09/12 05:26:50;;;;;;;8.57;6.77;;;15.60;99.90;;;17.18;84.00;100665.31;5013101;28;20725;-65
2022/09/12 05:29:17;;;;;;;11.10;7.50;;;15.70;99.90;;;17.17;83.25;100662.81;5012120;28;20662;-63
2022/09/12 05:31:45;;;;;;;9.10;6.07;;;15.70;99.90;;;17.12;83.44;100673.00;5017729;28;20636;-65
2022/09/12 05:34:12;;;;;;;8.87;5.73;;;15.70;99.90;;;17.21;83.53;100672.91;5038252;28;20639;-65
2022/09/12 05:36:39;;;;;;;7.57;5.37;;;15.80;99.90;;;17.20;83.22;100667.78;5046186;28;20701;-65
2022/09/12 05:39:06;;;;;;;7.97;5.20;;;15.80;99.90;;;17.16;83.46;100666.44;5052420;28;20659;-64
2022/09/12 05:41:35;;;;;;;10.37;6.23;;;15.80;99.90;;;17.00;85.31;100673.22;5050779;28;21257;-66
2022/09/12 05:44:06;;;;;;;7.10;5.70;;;15.70;99.90;;;17.15;84.21;100672.69;5041491;28;21238;-64
2022/09/12 05:46:38;;;;;;;8.67;6.27;;;15.70;99.90;;;17.26;84.43;100675.91;5013141;28;20613;-64
2022/09/12 05:49:09;;;;;;;6.60;4.80;;;15.80;99.90;;;17.45;83.58;100677.56;5012836;28;20641;-65
2022/09/12 05:51:41;;;;;;;4.53;3.30;;;15.90;99.90;;;17.56;82.33;100682.63;5050744;28;20620;-65
2022/09/12 05:54:11;;;;;;;6.27;4.07;;;16.00;99.90;;;17.14;84.66;100681.59;5042769;28;20645;-65
2022/09/12 05:56:41;;;;;;;7.33;5.40;;;16.00;99.90;;;17.57;82.72;100681.63;5013450;28;20672;-65
2022/09/12 05:59:20;;;;;;;9.80;5.77;;;16.10;99.90;;;17.63;82.45;100688.94;5013282;28;20669;-65
2022/09/12 06:01:47;;;;;;;7.23;5.70;;;16.10;99.90;;;17.80;81.41;100675.69;5031698;28;20631;-65
2022/09/12 06:04:14;;;;;;;9.20;5.00;;;16.20;99.90;;;18.06;80.47;100688.06;5038500;28;20640;-65
2022/09/12 06:06:47;;;;;;;8.60;5.20;;;16.30;99.90;;;18.15;80.20;100690.59;5046096;28;21214;-65
2022/09/12 06:09:16;;;;;;;5.63;4.20;;;16.40;99.90;;;18.24;79.18;100683.53;5040169;28;20715;-65
2022/09/12 06:11:44;;;;;;;11.00;6.20;;;16.50;99.90;;;18.46;78.92;100689.09;5027101;28;20693;-65
2022/09/12 06:14:15;;;;;;;8.30;5.33;;;16.70;99.90;;;18.62;78.33;100680.41;5011714;28;21181;-65
2022/09/12 06:16:42;;;;;;;9.40;6.03;;;16.80;99.90;;;18.96;77.07;100685.59;5010787;28;20621;-67
2022/09/12 06:19:27;;;;;;;11.97;6.90;;;17.10;99.90;;;19.35;75.73;100684.03;5011031;28;21303;-65
2022/09/12 06:21:54;;;;;;;10.57;7.00;;;17.40;99.90;;;19.78;73.07;100675.72;5012945;28;20617;-65
2022/09/12 06:24:21;;;;;;;7.40;5.30;;;17.70;99.90;;;20.49;70.19;100677.50;5011296;28;20625;-65
2022/09/12 06:26:50;;;;;;;5.20;3.97;;;18.20;99.90;;;21.28;67.23;100678.03;5011545;28;20614;-67
2022/09/12 06:29:18;;;;;;;8.13;5.47;;;18.80;99.90;;;22.65;62.40;100676.63;5011187;28;20645;-65
2022/09/12 06:31:45;;;;;;;10.60;6.93;;;19.60;99.90;;;23.34;59.18;100669.75;5029111;28;20625;-65
2022/09/12 06:34:14;;;;;;;12.30;8.00;;;20.20;99.90;;;23.96;56.29;100672.47;5031702;28;20664;-66
2022/09/12 06:36:46;;;;;;;11.43;8.13;;;20.80;99.90;;;24.54;54.84;100664.00;5011928;28;20638;-65
2022/09/12 06:39:21;;;;;;;9.67;6.60;;;21.40;99.90;;;25.07;53.53;100677.50;5011718;28;20653;-66
2022/09/12 06:41:50;;;;;;;9.70;7.53;;;21.80;99.90;;;24.49;54.07;100662.97;5022198;28;20636;-67
2022/09/12 06:44:21;;;;;;;11.73;7.80;;;21.80;99.90;;;23.70;56.59;100667.00;5031014;28;20662;-67
2022/09/12 06:46:48;;;;;;;9.00;6.47;;;21.40;99.90;;;23.22;57.92;100678.44;5013258;28;21004;-66
2022/09/12 06:49:16;;;;;;;8.93;7.30;;;21.20;99.90;;;22.83;59.10;100684.19;5043629;28;21196;-66
2022/09/12 06:51:43;;;;;;;11.50;8.10;;;20.90;99.90;;;22.41;60.34;100687.53;5033674;28;20616;-66
2022/09/12 06:54:15;;;;;;;12.67;7.90;;;20.50;99.90;;;22.14;61.23;100690.84;5048936;28;20622;-64
2022/09/12 06:56:43;;;;;;;12.43;8.70;;;20.30;99.90;;;22.10;61.56;100693.06;5012566;28;20617;-66
2022/09/12 06:59:09;;;;;;;12.60;7.87;;;20.30;99.90;;;22.30;61.42;100686.16;5011351;28;20625;-66
2022/09/12 07:01:37;;;;;;;10.93;7.10;;;20.40;99.90;;;22.85;60.09;100688.28;5035610;28;20644;-65
2022/09/12 07:04:04;;;;;;;12.07;7.63;;;20.50;99.90;;;23.42;58.38;100690.13;5035278;28;20660;-65
2022/09/12 07:06:37;;;;;;;14.70;9.17;;;20.80;99.90;;;23.67;57.64;100691.34;5029952;28;20719;-65
2022/09/12 07:09:07;;;;;;;11.90;8.50;;;21.10;99.90;;;23.51;58.17;100689.78;5019136;28;20644;-65
2022/09/12 07:11:37;;;;;;;10.40;6.97;;;21.20;99.90;;;23.66;58.09;100687.84;5030745;28;20615;-65
2022/09/12 07:14:06;;;;;;;14.67;8.67;;;21.40;99.90;;;23.70;58.14;100691.78;5023423;28;21046;-65
2022/09/12 07:16:36;;;;;;;14.83;9.33;;;21.50;99.90;;;23.80;57.46;100688.78;5029324;28;21132;-65
2022/09/12 07:19:06;;;;;;;20.90;11.60;;;21.50;99.90;;;23.86;57.63;100688.84;5022666;28;20616;-66
2022/09/12 07:21:38;;;;;;;21.10;10.97;;;21.50;99.90;;;23.90;57.44;100689.25;5023396;28;20616;-67
2022/09/12 07:24:08;;;;;;;22.60;12.57;;;21.50;99.90;;;23.18;58.92;100699.28;5023933;28;20609;-69
2022/09/12 07:26:35;;;;;;;21.53;11.37;;;21.20;99.90;;;22.76;60.62;100691.28;5014407;28;21051;-66
2022/09/12 07:29:02;;;;;;;19.50;10.10;;;20.80;99.90;;;22.57;61.44;100690.00;5026977;28;20693;-65
2022/09/12 07:31:49;;;;;;;27.40;11.87;;;20.70;99.90;;;22.90;61.09;100691.22;5050338;28;20621;-66
2022/09/12 07:34:16;;;;;;;23.00;10.57;;;20.70;99.90;;;22.68;61.73;100697.50;5031605;28;20679;-65
2022/09/12 07:36:44;;;;;;;20.40;11.70;;;20.70;99.90;;;23.05;60.53;100694.66;5030344;28;20649;-65
2022/09/12 07:39:11;;;;;;;28.30;13.67;;;20.70;99.90;;;22.42;63.05;100681.22;5015708;28;20634;-66
2022/09/12 07:41:38;;;;;;;27.20;13.30;;;20.50;99.90;;;22.82;61.14;100686.03;5010347;28;20649;-66
2022/09/12 07:44:06;;;;;;;29.30;15.30;;;20.50;99.90;;;22.74;61.41;100696.78;5022146;28;20632;-66
2022/09/12 07:46:34;;;;;;;23.50;12.80;;;20.50;99.90;;;23.58;59.53;100689.84;5030643;28;20623;-66
2022/09/12 07:49:01;;;;;;;21.50;11.67;;;20.90;99.90;;;24.42;57.06;100694.09;5019819;28;20676;-65
2022/09/12 07:51:30;;;;;;;27.97;13.40;;;21.50;99.90;;;25.68;53.14;100692.38;5022485;28;20617;-66
2022/09/12 07:53:57;;;;;;;21.43;10.90;;;22.30;99.90;;;27.17;49.77;100701.97;5020359;28;21217;-66
2022/09/12 07:56:26;;;;;;;25.23;12.57;;;23.30;99.90;;;28.04;47.17;100696.53;5010358;28;20668;-66
2022/09/12 07:58:57;;;;;;;21.30;12.23;;;24.20;99.90;;;29.05;45.63;100690.31;5010184;28;20637;-66
2022/09/12 08:01:25;;;;;;;24.20;12.70;;;24.90;99.90;;;30.04;42.46;100688.72;5040694;28;21243;-66
2022/09/12 08:03:57;;;;;;;22.70;12.67;;;25.70;99.90;;;30.76;41.23;100684.56;5037366;28;20733;-66
2022/09/12 08:06:26;;;;;;;20.40;11.83;;;26.50;99.90;;;31.59;39.62;100688.22;5048323;28;20686;-67
2022/09/12 08:08:56;;;;;;;25.10;13.43;;;27.30;99.40;;;32.61;38.02;100688.56;5014592;28;20665;-66
2022/09/12 08:11:24;;;;;;;21.20;12.23;;;28.10;97.90;;;33.39;36.59;100680.69;5029920;28;20617;-66
2022/09/12 08:13:54;;;;;;;21.30;13.27;;;28.90;95.70;;;34.15;35.49;100678.53;5026588;28;20633;-64
2022/09/12 08:16:26;;;;;;;22.00;13.60;;;29.60;94.10;;;35.20;33.26;100680.75;5025170;28;21185;-65
2022/09/12 08:18:53;;;;;;;20.53;13.87;;;30.50;92.20;;;35.81;32.21;100686.97;5040713;28;20636;-66
2022/09/12 08:21:26;;;;;;;23.07;14.53;;;31.20;90.00;;;35.85;32.26;100683.44;5049184;28;20664;-65
2022/09/12 08:23:56;;;;;;;18.70;12.77;;;31.40;86.60;;;36.61;31.19;100685.88;5039385;28;20619;-66
2022/09/12 08:26:23;;;;;;;24.07;14.20;;;32.00;85.00;;;37.32;30.48;100680.78;5019693;28;21423;-67
2022/09/12 08:28:50;;;;;;;21.20;13.30;;;32.40;81.90;;;38.01;29.23;100683.13;5021479;28;20636;-67
2022/09/12 08:31:20;;;;;;;22.60;14.57;;;33.00;79.00;;;38.87;27.91;100677.38;5026152;28;20645;-67
2022/09/12 08:33:47;;;;;;;19.77;13.90;;;33.60;76.80;;;39.64;27.19;100678.59;5039603;28;20640;-67
2022/09/12 08:36:20;;;;;;;22.10;12.90;;;34.10;74.30;;;40.59;25.75;100684.06;5045425;28;20620;-66
2022/09/12 08:38:50;;;;;;;17.93;12.60;;;34.60;72.40;;;41.48;24.78;100684.94;5020111;28;20624;-66
2022/09/12 08:41:18;;;;;;;15.80;13.07;;;35.10;70.50;;;42.11;24.29;100687.31;5045180;28;21082;-67
2022/09/12 08:44:13;;;;;;;19.33;12.87;;;35.50;68.50;;;42.61;23.03;100689.69;5049340;28;20675;-67
2022/09/12 08:46:59;;;;;;;16.30;11.53;;;35.90;66.70;;;43.76;22.26;100685.88;5008289;28;21399;-66
2022/09/12 08:49:50;;;;;;;15.50;12.60;;;36.40;65.50;;;45.12;20.48;100688.03;5018408;28;20660;-67
2022/09/12 08:52:37;;;;;;;15.10;11.90;;;37.30;63.30;;;46.21;20.01;100683.53;5009300;28;20622;-68
2022/09/12 08:55:10;;;;;;;13.00;10.57;;;38.10;61.50;;;47.59;18.41;100680.00;5012838;28;21010;-68
2022/09/12 08:57:38;;;;;;;11.23;10.03;;;39.00;59.40;;;48.68;17.55;100679.03;5013438;28;20617;-67
2022/09/12 09:00:12;;;;;;;10.30;8.97;;;40.00;56.60;;;49.58;16.13;100673.66;5014665;28;20747;-65
2022/09/12 09:03:07;;;;;;;14.70;10.97;;;40.80;54.20;;;49.82;15.71;100668.88;5044632;28;20617;-66
2022/09/12 09:05:50;;;;;;;12.43;11.03;;;41.30;52.70;;;50.09;16.23;100670.50;5042960;28;20633;-66
2022/09/12 09:08:38;;;;;;;15.87;12.10;;;41.60;51.60;;;49.90;15.98;100659.53;5032361;28;20627;-66
2022/09/12 09:11:34;;;;;;;14.03;12.30;;;41.60;51.90;;;50.10;15.71;100669.31;5021453;28;20657;-68
2022/09/12 09:14:47;;;;;;;13.47;11.90;;;42.00;50.40;;;49.89;15.59;100664.25;5013197;28;20622;-63
2022/09/12 09:17:30;;;;;;;13.17;11.47;;;42.00;49.80;;;49.58;16.32;100668.09;5013923;28;20618;-67
2022/09/12 09:20:26;;;;;;;13.93;12.47;;;41.90;49.40;;;49.45;16.05;100672.22;5022498;28;20676;-66
2022/09/12 09:23:21;;;;;;;13.13;11.80;;;41.90;48.90;;;49.44;15.69;100665.06;5032562;28;21187;-66
2022/09/12 09:26:03;;;;;;;12.80;11.50;;;41.90;48.20;;;48.27;16.66;100663.88;5030925;28;20635;-66
2022/09/12 09:28:40;;;;;;;12.20;10.97;;;41.80;48.00;;;48.49;16.64;100656.88;5047968;28;21255;-67
2022/09/12 09:31:16;;;;;;;15.27;12.17;;;41.80;48.10;;;47.88;17.03;100659.44;5044642;28;20660;-66
2022/09/12 09:33:45;;;;;;;14.57;13.00;;;41.40;48.10;;;46.87;17.63;100648.06;5032248;28;21198;-65
2022/09/12 09:36:37;;;;;;;15.90;13.80;;;40.70;48.60;;;45.90;18.79;100651.00;5024307;28;20633;-66
2022/09/12 09:39:28;;;;;;;15.23;13.30;;;40.00;49.60;;;46.13;18.67;100648.59;5030155;28;20654;-66
2022/09/12 09:42:22;;;;;;;16.33;13.40;;;39.90;49.10;;;45.93;18.72;100652.28;5032159;28;20648;-65
2022/09/12 09:44:52;;;;;;;14.90;11.77;;;39.40;49.50;;;46.13;18.31;100646.63;5034340;28;20678;-66
2022/09/12 09:47:19;;;;;;;13.20;11.37;;;39.40;49.50;;;46.05;18.64;100638.47;5051098;28;20628;-67
2022/09/12 09:49:46;;;;;;;15.10;12.37;;;39.40;49.40;;;45.63;19.14;100637.91;5021362;28;20709;-66
2022/09/12 09:52:27;;;;;;;14.47;12.57;;;39.50;49.30;;;45.64;18.72;100641.47;5027824;28;21061;-66
2022/09/12 09:55:00;;;;;;;16.83;14.83;;;39.80;49.20;;;46.10;18.99;100641.81;5028464;28;20639;-64
2022/09/12 09:57:33;;;;;;;17.50;14.40;;;39.90;48.90;;;46.52;18.09;100641.50;5035502;28;20644;-66
2022/09/12 10:00:26;;;;;;;15.17;12.63;;;40.00;48.90;;;46.91;17.70;100648.97;5051698;28;20721;-66
2022/09/12 10:03:08;;;;;;;14.17;12.20;;;40.40;48.70;;;46.57;17.99;100652.28;5038546;28;20632;-68
2022/09/12 10:05:57;;;;;;;14.50;12.07;;;40.30;48.30;;;46.58;17.99;100646.41;5031285;28;20627;-67
2022/09/12 10:08:34;;;;;;;17.30;14.60;;;40.50;48.30;;;46.39;18.02;100646.25;5030337;28;20699;-66
2022/09/12 10:11:29;;;;;;;17.40;14.60;;;40.50;48.30;;;46.10;18.92;100632.72;5031510;28;20688;-65
2022/09/12 10:14:00;;;;;;;24.23;16.80;;;40.40;48.30;;;45.60;18.79;100632.28;5039385;28;20774;-66
2022/09/12 10:16:48;;;;;;;17.87;14.30;;;40.00;48.20;;;45.96;18.97;100632.31;5012981;28;20682;-66
2022/09/12 10:19:32;;;;;;;18.53;15.47;;;39.90;48.50;;;45.93;18.96;100622.78;5011428;28;20630;-65
2022/09/12 10:22:01;;;;;;;19.37;13.97;;;39.90;48.40;;;45.94;18.50;100615.31;5034016;28;20664;-67
2022/09/12 10:24:38;;;;;;;18.60;15.53;;;39.80;48.60;;;45.04;19.43;100609.06;5030089;28;20673;-66
2022/09/12 10:27:13;;;;;;;19.90;15.90;;;39.40;48.70;;;43.59;20.18;100608.97;5030945;28;20617;-65
2022/09/12 10:30:02;;;;;;;20.67;16.80;;;38.50;49.50;;;42.14;21.93;100593.50;5043238;28;20659;-65
2022/09/12 10:32:37;;;;;;;21.53;14.60;;;37.80;50.10;;;40.00;23.90;100592.09;5051236;28;21244;-66
2022/09/12 10:35:29;;;;;;;22.40;15.83;;;36.60;51.10;;;37.87;26.46;100593.13;5047574;28;20639;-65
2022/09/12 10:38:04;;;;;;;20.37;14.73;;;35.20;52.70;;;36.56;28.18;100594.34;5014326;28;20646;-66
2022/09/12 10:40:39;;;;;;;21.67;14.87;;;34.10;53.90;;;35.24;30.08;100589.63;5012400;28;20665;-66